Time;durP1;ratioP1;P1;durP2;ratioP2;P2;SDS_P1;SDS_P2;PMS_P1;PMS_P2;Temp;Humidity;BMP_temperature;BMP_pressure;BME280_temperature;BME280_humidity;BME280_pressure;Samples;Min_cycle;Max_cycle;Signal;HPM_P1;HPM_P2
2022/06/21 00:00:19;;;;;;;2.00;1.80;;;;;;;26.36;35.93;100443.41;5077363;28;20412;-70
2022/06/21 00:02:48;;;;;;;3.17;1.77;;;;;;;26.34;36.07;100454.56;5071426;28;20919;-68
2022/06/21 00:05:23;;;;;;;2.47;1.77;;;;;;;26.30;36.09;100451.59;5073653;28;20431;-69
2022/06/21 00:10:18;;;;;;;2.03;1.70;;;;;;;26.27;35.97;100451.34;5091324;27;20410;-68
2022/06/21 00:12:45;;;;;;;1.70;1.52;;;;;;;26.24;36.31;100443.78;5079717;28;20428;-67
2022/06/21 00:15:13;;;;;;;2.50;1.70;;;;;;;26.21;36.33;100441.63;5082967;28;20418;-67
2022/06/21 00:17:41;;;;;;;2.05;1.80;;;;;;;26.16;36.67;100455.22;5082769;28;20422;-67
2022/06/21 00:20:13;;;;;;;2.40;1.80;;;;;;;26.13;36.61;100451.97;5079528;28;20498;-68
2022/06/21 00:22:41;;;;;;;2.10;1.83;;;;;;;26.08;36.84;100449.28;5078808;28;20422;-67
2022/06/21 00:25:18;;;;;;;1.90;1.80;;;;;;;26.05;36.93;100446.31;5082052;28;20426;-67
2022/06/21 00:27:45;;;;;;;1.75;1.60;;;;;;;26.01;36.93;100437.91;5082818;28;20418;-67
2022/06/21 00:30:14;;;;;;;2.67;1.98;;;;;;;25.97;37.13;100438.78;5081185;28;20501;-67
2022/06/21 00:32:41;;;;;;;2.05;1.80;;;;;;;25.89;37.33;100440.94;5079133;28;20497;-67
2022/06/21 00:35:13;;;;;;;2.90;2.13;;;;;;;25.87;37.37;100451.25;5079841;28;22354;-67
2022/06/21 00:37:41;;;;;;;3.45;1.80;;;;;;;25.84;37.62;100445.56;5082982;28;20512;-68
2022/06/21 00:40:20;;;;;;;2.10;2.00;;;;;;;25.79;37.66;100446.41;5082559;28;20422;-67
2022/06/21 00:42:53;;;;;;;2.13;1.77;;;;;;;25.75;37.66;100439.94;5080738;28;20493;-67
2022/06/21 00:45:28;;;;;;;2.08;1.88;;;;;;;25.75;37.79;100453.50;5079249;28;21026;-68
2022/06/21 00:47:58;;;;;;;1.85;1.65;;;;;;;25.72;37.81;100449.44;5082584;28;20501;-67
2022/06/21 00:51:37;;;;;;;1.80;1.70;;;;;;;25.68;38.03;100450.28;5061774;28;20408;-68
2022/06/21 00:54:24;;;;;;;2.95;1.80;;;;;;;25.62;38.18;100454.09;5054407;28;20410;-69
2022/06/21 00:57:52;;;;;;;1.70;1.60;;;;;;;25.54;38.21;100453.56;5092406;27;20408;-70
2022/06/21 01:00:29;;;;;;;2.10;1.80;;;;;;;25.43;38.35;100454.69;5084953;28;20512;-69
2022/06/21 01:02:59;;;;;;;4.57;1.58;;;;;;;25.36;38.50;100456.88;5082422;28;20418;-69
2022/06/21 01:05:28;;;;;;;1.90;1.63;;;;;;;25.29;38.68;100465.31;5082140;28;20504;-69
2022/06/21 01:07:57;;;;;;;1.83;1.50;;;;;;;25.27;38.69;100453.09;5079914;28;20441;-70
2022/06/21 01:10:26;;;;;;;1.60;1.50;;;;;;;25.25;38.77;100453.38;5081374;28;20501;-69
2022/06/21 01:15:32;;;;;;;1.77;1.55;;;;;;;25.26;38.98;100451.47;5076023;27;20462;-69
2022/06/21 01:18:02;;;;;;;2.40;1.60;;;;;;;25.21;38.79;100452.28;5085911;28;20420;-67
2022/06/21 01:20:33;;;;;;;2.63;1.50;;;;;;;25.23;38.74;100443.84;5073215;28;20907;-67
2022/06/21 01:23:11;;;;;;;2.60;1.70;;;;;;;25.24;38.73;100449.03;5074545;28;20426;-67
2022/06/21 01:26:56;;;;;;;1.67;1.58;;;;;;;25.22;38.65;100447.66;5098679;27;2060846;-68
2022/06/21 01:29:27;;;;;;;3.20;1.63;;;;;;;25.22;38.72;100442.22;5147790;27;20504;-69
2022/06/21 01:31:56;;;;;;;2.50;1.60;;;;;;;25.21;38.53;100433.28;5147678;27;20400;-69
2022/06/21 01:34:26;;;;;;;2.23;1.47;;;;;;;25.24;38.63;100434.63;5148054;27;20419;-69
2022/06/21 01:36:57;;;;;;;3.03;1.40;;;;;;;25.26;38.57;100427.06;5147830;27;20417;-68
2022/06/21 01:39:28;;;;;;;3.83;1.80;;;;;;;25.27;38.58;100424.06;5147345;27;20417;-69
2022/06/21 01:42:02;;;;;;;2.10;1.52;;;;;;;25.32;38.57;100423.25;5147585;27;20493;-68
2022/06/21 01:44:33;;;;;;;3.88;1.60;;;;;;;25.32;38.51;100420.53;5138804;27;20783;-69
2022/06/21 01:47:03;;;;;;;1.50;1.40;;;;;;;25.37;38.42;100420.50;5147531;27;20497;-69
2022/06/21 01:49:34;;;;;;;1.70;1.58;;;;;;;25.40;38.39;100425.38;5147042;27;20421;-68
2022/06/21 01:52:07;;;;;;;1.60;1.50;;;;;;;25.42;38.33;100423.19;5147755;27;20468;-68
2022/06/21 01:54:40;;;;;;;2.47;1.40;;;;;;;25.42;38.25;100425.91;5145782;27;20508;-69
2022/06/21 01:57:09;;;;;;;2.13;1.63;;;;;;;25.38;38.29;100422.94;5144350;27;20420;-69
2022/06/21 01:59:41;;;;;;;1.85;1.52;;;;;;;25.38;38.28;100417.53;5142456;27;20491;-70
2022/06/21 02:02:11;;;;;;;2.20;1.60;;;;;;;25.36;38.28;100416.19;5147045;27;20405;-70
2022/06/21 02:04:47;;;;;;;2.03;1.70;;;;;;;25.31;38.28;100421.63;5147210;27;20495;-69
2022/06/21 02:07:19;;;;;;;2.17;1.50;;;;;;;25.25;38.35;100420.03;5147214;27;20436;-69
2022/06/21 02:09:50;;;;;;;4.07;2.20;;;;;;;25.23;38.35;100408.56;5133590;27;20504;-69
2022/06/21 02:12:19;;;;;;;2.03;1.50;;;;;;;25.24;38.40;100411.03;5147504;27;21416;-69
2022/06/21 02:14:50;;;;;;;2.17;1.50;;;;;;;25.22;38.52;100410.47;5140219;27;20861;-70
2022/06/21 02:17:20;;;;;;;2.25;1.52;;;;;;;25.22;38.50;100405.06;5146806;27;20421;-68
2022/06/21 02:19:52;;;;;;;2.13;1.40;;;;;;;25.24;38.17;100402.06;5147247;27;20405;-69
2022/06/21 02:22:23;;;;;;;2.20;1.70;;;;;;;25.26;38.45;100400.72;5146573;27;20997;-68
2022/06/21 02:24:52;;;;;;;2.08;1.50;;;;;;;25.28;38.44;100403.16;5146217;27;20496;-69
2022/06/21 02:27:24;;;;;;;4.65;2.00;;;;;;;25.27;38.39;100415.13;5146024;27;20413;-69
2022/06/21 02:29:53;;;;;;;1.70;1.58;;;;;;;25.27;38.46;100409.69;5146651;27;20401;-68
2022/06/21 02:32:26;;;;;;;1.85;1.63;;;;;;;25.22;38.47;100412.41;5146323;27;20981;-69
2022/06/21 02:34:58;;;;;;;2.03;1.70;;;;;;;25.19;38.51;100414.56;5146572;27;20413;-69
2022/06/21 02:37:28;;;;;;;2.13;1.60;;;;;;;25.16;38.51;100425.97;5137039;27;20875;-68
2022/06/21 02:39:57;;;;;;;1.90;1.58;;;;;;;25.11;38.96;100419.75;5133028;27;20484;-69
2022/06/21 02:42:29;;;;;;;2.00;1.60;;;;;;;25.07;38.85;100429.53;5132379;27;20410;-69
2022/06/21 02:45:01;;;;;;;3.13;1.55;;;;;;;25.06;38.85;100422.47;5132715;27;20493;-69
2022/06/21 02:47:33;;;;;;;2.70;1.40;;;;;;;25.04;38.81;100422.72;5131342;27;20810;-69
2022/06/21 02:50:08;;;;;;;2.33;1.75;;;;;;;25.03;38.92;100431.97;5131706;27;20485;-69
2022/06/21 02:52:39;;;;;;;2.20;1.40;;;;;;;25.02;38.94;100427.63;5131492;27;20505;-69
2022/06/21 02:55:26;;;;;;;2.43;1.67;;;;;;;25.03;39.05;100431.97;5131480;27;20414;-68
2022/06/21 02:58:01;;;;;;;2.95;1.50;;;;;;;25.05;38.63;100418.09;5130985;27;20420;-69
2022/06/21 03:00:29;;;;;;;4.10;2.00;;;;;;;25.06;39.04;100420.56;5131205;27;20956;-69
2022/06/21 03:02:59;;;;;;;2.55;1.67;;;;;;;25.11;38.90;100417.03;5131643;27;20416;-69
2022/06/21 03:05:29;;;;;;;2.08;1.50;;;;;;;25.16;38.81;100409.69;5131444;27;20552;-69
2022/06/21 03:07:58;;;;;;;2.30;1.80;;;;;;;25.23;38.62;100405.88;5129441;27;21628;-70
2022/06/21 03:10:30;;;;;;;2.30;1.52;;;;;;;25.33;38.72;100409.38;5131306;27;20493;-69
2022/06/21 03:13:02;;;;;;;2.10;1.77;;;;;;;25.40;38.57;100400.16;5131176;27;20501;-69
2022/06/21 03:15:29;;;;;;;3.22;2.13;;;;;;;25.44;38.33;100391.16;5128859;27;20412;-69
2022/06/21 03:18:02;;;;;;;2.53;1.60;;;;;;;25.46;38.36;100391.72;5129774;27;21129;-69
2022/06/21 03:20:32;;;;;;;4.93;1.77;;;;;;;25.53;38.29;100375.97;5131309;27;20521;-69
2022/06/21 03:23:00;;;;;;;3.85;1.65;;;;;;;25.42;38.47;100370.84;5131539;27;20414;-69
2022/06/21 03:25:33;;;;;;;2.53;1.80;;;;;;;25.33;38.56;100365.19;5130905;27;20521;-70
2022/06/21 03:28:02;;;;;;;1.67;1.58;;;;;;;25.36;38.48;100362.72;5130632;27;20486;-69
2022/06/21 03:30:32;;;;;;;3.08;1.80;;;;;;;25.48;38.47;100362.41;5130377;27;20937;-67
2022/06/21 03:33:02;;;;;;;3.72;1.77;;;;;;;25.67;38.11;100364.50;5129214;27;20414;-69
2022/06/21 03:35:34;;;;;;;3.90;1.83;;;;;;;25.80;37.99;100361.16;5130077;27;20854;-70
2022/06/21 03:38:02;;;;;;;4.32;1.73;;;;;;;25.92;37.89;100375.19;5130693;27;20442;-69
2022/06/21 03:43:25;;;;;;;3.40;1.83;;;;;;;26.20;37.76;100372.06;5125968;27;20541;-70
2022/06/21 03:45:55;;;;;;;3.30;1.92;;;;;;;26.30;37.58;100364.63;5126104;27;20424;-69
2022/06/21 03:48:30;;;;;;;4.50;2.58;;;;;;;26.43;37.27;100370.53;5129599;27;20501;-69
2022/06/21 03:51:04;;;;;;;4.47;2.20;;;;;;;26.54;37.28;100361.19;5129375;27;20449;-69
2022/06/21 03:53:34;;;;;;;3.47;1.95;;;;;;;26.64;36.99;100358.41;5129791;27;20497;-69
2022/06/21 03:56:05;;;;;;;4.07;1.92;;;;;;;26.80;36.85;100366.44;5126961;27;20420;-69
2022/06/21 03:58:47;;;;;;;4.95;2.08;;;;;;;26.95;36.59;100358.09;5127561;27;20413;-67
2022/06/21 04:01:19;;;;;;;6.15;1.90;;;;;;;27.09;36.67;100361.75;5126868;27;20914;-69
2022/06/21 04:03:51;;;;;;;3.83;2.25;;;;;;;27.28;36.19;100366.47;5126268;27;20437;-70
2022/06/21 04:06:25;;;;;;;4.13;2.47;;;;;;;27.46;35.66;100365.72;5127314;27;20926;-66
2022/06/21 04:09:00;;;;;;;3.60;2.00;;;;;;;27.63;35.33;100362.47;5127486;27;20408;-68
2022/06/21 04:11:34;;;;;;;3.72;2.10;;;;;;;27.83;34.82;100364.09;5126352;27;20845;-71
2022/06/21 04:14:12;;;;;;;4.43;2.10;;;;;;;28.05;34.17;100370.09;5125307;27;20532;-66
2022/06/21 04:16:45;;;;;;;5.03;2.30;;;;;;;28.26;34.35;100363.22;5126631;27;22070;-68
2022/06/21 04:19:20;;;;;;;3.65;2.22;;;;;;;28.44;33.73;100367.03;5128262;27;20482;-69
2022/06/21 04:21:52;;;;;;;5.15;2.22;;;;;;;28.70;32.68;100361.97;5126072;27;20413;-66
2022/06/21 04:24:27;;;;;;;3.57;2.00;;;;;;;28.96;32.59;100365.03;5126704;27;20910;-69
2022/06/21 04:26:59;;;;;;;3.45;2.00;;;;;;;29.13;32.06;100361.69;5126106;27;20425;-67
2022/06/21 04:29:32;;;;;;;5.43;2.63;;;;;;;29.44;31.92;100365.75;5126345;27;20412;-70
2022/06/21 04:32:05;;;;;;;6.18;2.13;;;;;;;29.70;31.67;100369.53;5124391;27;20425;-68
2022/06/21 04:34:36;;;;;;;4.50;2.10;;;;;;;30.02;31.17;100378.72;5125515;27;20410;-67
2022/06/21 04:37:08;;;;;;;2.47;1.90;;;;;;;30.30;30.98;100378.59;5124013;27;20493;-70
2022/06/21 04:39:40;;;;;;;7.03;2.37;;;;;;;30.59;30.80;100380.09;5125537;27;20485;-68
2022/06/21 04:42:12;;;;;;;5.70;3.20;;;;;;;30.82;30.02;100384.38;5127024;27;20479;-68
2022/06/21 04:44:46;;;;;;;3.17;2.35;;;;;;;31.09;29.73;100373.59;5124953;27;20408;-69
2022/06/21 04:47:18;;;;;;;4.00;3.30;;;;;;;31.40;29.04;100371.59;5126287;27;20512;-69
2022/06/21 04:49:50;;;;;;;4.90;3.50;;;;;;;31.67;29.16;100377.16;5123054;27;20972;-71
2022/06/21 04:52:21;;;;;;;4.50;3.42;;;;;;;31.91;28.60;100363.78;5123539;27;20427;-71
2022/06/21 04:54:48;;;;;;;5.28;3.90;;;;;;;32.28;28.68;100368.94;5126222;27;20409;-70
2022/06/21 04:57:18;;;;;;;3.40;3.10;;;;;;;32.56;27.88;100367.44;5124495;27;20408;-70
2022/06/21 04:59:50;;;;;;;4.07;3.30;;;;;;;32.88;27.68;100357.03;5125540;27;20496;-70
2022/06/21 05:02:21;;;;;;;8.77;6.00;;;;;;;33.31;27.09;100367.03;5124983;27;20412;-69
2022/06/21 05:04:52;;;;;;;7.85;5.63;;;;;;;33.63;26.84;100359.19;5126149;27;20949;-69
2022/06/21 05:07:22;;;;;;;9.00;6.28;;;;;;;34.03;26.40;100367.00;5123295;27;21024;-69
2022/06/21 05:09:51;;;;;;;6.00;5.07;;;;;;;34.42;25.67;100359.34;5123936;27;20441;-69
2022/06/21 05:12:28;;;;;;;5.95;4.88;;;;;;;34.79;25.55;100366.88;5126883;27;20406;-70
2022/06/21 05:15:07;;;;;;;5.40;3.58;;;;;;;35.20;24.67;100371.44;5125084;27;21035;-67
2022/06/21 05:17:38;;;;;;;3.28;2.22;;;;;;;35.65;23.82;100371.56;5126371;27;20481;-67
2022/06/21 05:20:12;;;;;;;4.00;2.35;;;;;;;36.20;23.05;100360.97;5124871;27;20481;-67
2022/06/21 05:22:43;;;;;;;4.70;2.30;;;;;;;36.92;22.80;100355.34;5123917;27;20485;-67
2022/06/21 05:25:21;;;;;;;4.50;2.45;;;;;;;37.67;22.12;100348.81;5125130;28;20414;-67
2022/06/21 05:27:53;;;;;;;2.55;2.33;;;;;;;38.48;21.21;100349.16;5125571;28;20436;-67
2022/06/21 05:30:34;;;;;;;4.75;2.53;;;;;;;39.23;20.40;100347.63;5125092;28;20914;-67
2022/06/21 05:33:08;;;;;;;3.75;2.50;;;;;;;40.02;19.64;100353.41;5125335;28;20789;-68
2022/06/21 05:35:36;;;;;;;2.78;2.28;;;;;;;40.70;18.93;100342.97;5126788;28;20405;-68
2022/06/21 05:38:07;;;;;;;3.22;2.38;;;;;;;41.25;18.26;100342.97;5125794;28;20412;-68
2022/06/21 05:40:40;;;;;;;5.13;2.60;;;;;;;42.01;17.54;100338.53;5123645;28;20404;-69
2022/06/21 05:43:14;;;;;;;5.85;2.53;;;;;;;42.69;17.15;100329.47;5123726;28;20411;-69
2022/06/21 05:45:46;;;;;;;5.10;3.20;;;;;;;43.29;16.86;100324.19;5119462;28;20795;-68
2022/06/21 05:48:21;;;;;;;3.35;2.30;;;;;;;44.01;16.23;100337.84;5125838;28;20406;-68
2022/06/21 05:50:48;;;;;;;3.72;1.90;;;;;;;44.61;15.29;100342.22;5120873;28;20414;-67
2022/06/21 05:53:22;;;;;;;3.83;2.38;;;;;;;45.09;15.02;100340.56;5128021;28;20410;-68
2022/06/21 05:55:49;;;;;;;4.63;2.10;;;;;;;45.34;14.83;100339.50;5128848;28;20488;-68
2022/06/21 05:58:21;;;;;;;4.10;2.00;;;;;;;45.78;14.11;100340.59;5126186;28;20988;-69
2022/06/21 06:00:58;;;;;;;2.20;2.00;;;;;;;46.01;14.24;100350.25;5127658;28;20492;-70
2022/06/21 06:03:31;;;;;;;3.38;2.13;;;;;;;46.26;13.67;100349.88;5128857;28;20516;-69
2022/06/21 06:06:04;;;;;;;2.97;2.00;;;;;;;46.70;13.58;100348.75;5128967;28;20410;-69
2022/06/21 06:08:36;;;;;;;3.50;2.17;;;;;;;47.21;13.00;100340.19;5126939;28;20471;-68
2022/06/21 06:11:09;;;;;;;5.60;2.77;;;;;;;47.66;12.79;100342.50;5128946;27;20480;-67
2022/06/21 06:13:41;;;;;;;4.03;2.30;;;;;;;48.24;12.18;100350.44;5132739;27;20417;-68
2022/06/21 06:16:16;;;;;;;5.03;2.60;;;;;;;48.72;12.10;100352.91;5126930;27;20405;-67
2022/06/21 06:18:49;;;;;;;4.93;2.08;;;;;;;48.56;12.44;100350.88;5130024;27;20418;-69
2022/06/21 06:21:21;;;;;;;4.07;2.40;;;;;;;48.32;12.23;100348.22;5132706;27;20869;-68
2022/06/21 06:23:54;;;;;;;3.17;2.60;;;;;;;48.32;12.43;100358.69;5132992;27;20477;-68
2022/06/21 06:26:25;;;;;;;4.13;2.90;;;;;;;48.51;12.08;100360.63;5133278;27;20508;-67
2022/06/21 06:28:58;;;;;;;4.17;2.23;;;;;;;48.17;12.35;100355.44;5132849;27;20406;-67
2022/06/21 06:31:32;;;;;;;5.13;2.63;;;;;;;48.06;12.48;100358.50;5132353;27;20410;-67
2022/06/21 06:34:04;;;;;;;5.22;2.70;;;;;;;48.21;12.30;100356.94;5130934;27;20479;-67
2022/06/21 06:36:34;;;;;;;2.75;2.55;;;;;;;48.44;12.39;100369.25;5132710;27;20426;-67
2022/06/21 06:39:03;;;;;;;3.43;2.70;;;;;;;48.49;12.07;100363.09;5132991;27;20496;-67
2022/06/21 06:41:34;;;;;;;4.03;2.80;;;;;;;48.73;12.27;100360.91;5133000;27;20400;-67
2022/06/21 06:44:04;;;;;;;3.38;2.72;;;;;;;48.53;12.11;100369.44;5116080;27;20408;-67
2022/06/21 06:46:35;;;;;;;3.10;2.80;;;;;;;48.71;12.23;100368.97;5124742;27;20410;-67
2022/06/21 06:49:08;;;;;;;4.83;2.90;;;;;;;48.35;12.49;100372.69;5118289;27;20480;-67
2022/06/21 06:51:46;;;;;;;4.22;3.30;;;;;;;48.08;12.70;100369.31;5121314;27;20834;-68
2022/06/21 06:54:20;;;;;;;3.97;2.72;;;;;;;48.29;12.79;100368.00;5131273;27;20433;-67
2022/06/21 06:57:19;;;;;;;4.15;3.00;;;;;;;47.59;13.25;100365.09;5132701;27;20949;-67
2022/06/21 06:59:47;;;;;;;2.97;2.60;;;;;;;46.91;13.74;100369.25;5118708;27;20493;-67
2022/06/21 07:02:24;;;;;;;4.03;3.13;;;;;;;46.49;14.02;100365.97;5122850;27;20481;-67
2022/06/21 07:05:02;;;;;;;4.32;3.00;;;;;;;46.16;14.32;100366.44;5132588;27;20406;-67
2022/06/21 07:07:38;;;;;;;4.20;3.00;;;;;;;45.48;15.04;100363.75;5131503;27;20915;-66
2022/06/21 07:10:12;;;;;;;5.30;3.20;;;;;;;44.42;15.52;100363.09;5132477;27;20437;-67
2022/06/21 07:12:40;;;;;;;4.72;3.03;;;;;;;43.74;16.88;100365.50;5127819;27;20803;-66
2022/06/21 07:15:11;;;;;;;3.70;2.80;;;;;;;43.10;17.05;100362.50;5131086;27;20504;-66
2022/06/21 07:17:45;;;;;;;6.47;3.60;;;;;;;42.54;18.02;100366.91;5125548;27;20424;-66
2022/06/21 07:20:18;;;;;;;4.38;2.97;;;;;;;42.12;18.60;100368.41;5130419;27;20444;-67
2022/06/21 07:22:45;;;;;;;4.13;3.10;;;;;;;41.78;18.71;100371.50;5126910;27;20492;-66
2022/06/21 07:25:21;;;;;;;4.93;3.33;;;;;;;41.65;19.66;100365.44;5131723;27;20421;-66
2022/06/21 07:27:53;;;;;;;3.47;2.90;;;;;;;41.16;20.00;100361.97;5132095;27;20404;-66
2022/06/21 07:30:26;;;;;;;5.40;3.13;;;;;;;41.03;19.94;100366.25;5132133;27;20489;-65
2022/06/21 07:32:59;;;;;;;4.33;3.10;;;;;;;41.00;20.17;100370.59;5123299;27;20877;-66
2022/06/21 07:35:32;;;;;;;4.57;2.80;;;;;;;40.44;20.70;100360.59;5126705;27;20919;-66
2022/06/21 07:38:05;;;;;;;4.55;3.10;;;;;;;40.08;21.34;100366.56;5123281;27;20431;-64
2022/06/21 07:40:35;;;;;;;5.00;2.95;;;;;;;40.01;21.33;100368.47;5126578;27;20402;-64
2022/06/21 07:43:08;;;;;;;4.53;2.80;;;;;;;39.69;21.67;100371.63;5131272;27;20903;-64
2022/06/21 07:45:43;;;;;;;4.82;3.08;;;;;;;39.49;21.58;100382.88;5129554;27;20412;-63
2022/06/21 07:48:33;;;;;;;5.03;2.80;;;;;;;39.40;21.65;100371.25;5112601;27;20404;-64
2022/06/21 07:51:05;;;;;;;4.70;3.08;;;;;;;39.28;21.98;100374.22;5127615;27;20406;-65
2022/06/21 07:53:38;;;;;;;5.35;3.00;;;;;;;38.95;22.55;100372.91;5122306;27;20403;-68
2022/06/21 07:56:11;;;;;;;5.68;3.30;;;;;;;38.49;23.03;100375.69;5126154;27;20502;-67
2022/06/21 07:58:43;;;;;;;7.00;3.00;;;;;;;38.20;23.42;100380.69;5122446;27;20425;-67
2022/06/21 08:06:57;;;;;;;3.88;2.80;;;;;;;37.77;24.36;100372.31;5118581;27;20408;-68
2022/06/21 08:09:32;;;;;;;7.47;3.25;;;;;;;37.64;24.44;100379.16;5117211;27;20494;-67
2022/06/21 08:12:00;;;;;;;6.05;2.90;;;;;;;37.63;24.73;100378.31;5117992;27;20416;-67
2022/06/21 08:14:30;;;;;;;3.72;2.97;;;;;;;37.46;24.16;100379.53;5131121;27;20908;-66
2022/06/21 08:17:03;;;;;;;4.90;3.00;;;;;;;37.45;24.70;100372.38;5116240;27;20961;-67
2022/06/21 08:19:37;;;;;;;6.70;3.20;;;;;;;37.45;24.65;100368.81;5131089;27;20405;-68
2022/06/21 08:22:08;;;;;;;5.88;2.60;;;;;;;37.40;25.37;100377.41;5131094;27;20394;-65
2022/06/21 08:24:41;;;;;;;7.50;3.42;;;;;;;37.32;24.95;100381.97;5131002;27;20405;-66
2022/06/21 08:27:18;;;;;;;5.57;3.47;;;;;;;37.37;24.81;100378.94;5130649;27;20414;-67
2022/06/21 08:29:53;;;;;;;6.03;3.30;;;;;;;37.21;25.50;100378.97;5119890;27;20408;-66
2022/06/21 08:32:26;;;;;;;4.32;2.83;;;;;;;37.20;25.79;100377.34;5128477;27;20505;-66
2022/06/21 08:35:00;;;;;;;4.78;3.30;;;;;;;37.34;25.80;100378.84;5130338;27;20932;-67
2022/06/21 08:37:35;;;;;;;6.88;3.58;;;;;;;37.26;25.75;100375.91;5130701;27;20509;-66
2022/06/21 08:40:20;;;;;;;7.50;3.13;;;;;;;37.04;25.42;100368.25;5119508;27;20418;-67
2022/06/21 08:43:19;;;;;;;4.07;3.10;;;;;;;36.95;25.45;100365.66;5110184;28;20468;-67
2022/06/21 08:46:15;;;;;;;7.07;3.22;;;;;;;36.91;24.98;100365.59;5126739;27;20480;-67
2022/06/21 08:49:11;;;;;;;4.82;2.90;;;;;;;36.90;25.86;100375.03;5130571;27;20859;-67
2022/06/21 08:52:10;;;;;;;9.75;3.97;;;;;;;36.83;26.27;100360.25;5130358;27;20401;-67
2022/06/21 08:54:47;;;;;;;8.13;3.70;;;;;;;36.74;26.26;100369.53;5126715;27;20414;-68
2022/06/21 08:57:20;;;;;;;11.95;4.13;;;;;;;36.71;26.07;100373.00;5116771;27;20506;-68
2022/06/21 08:59:59;;;;;;;5.50;4.20;;;;;;;36.66;26.35;100372.44;5109700;28;20859;-68
2022/06/21 09:02:37;;;;;;;9.65;3.90;;;;;;;36.53;26.75;100375.25;5110032;28;20490;-68
2022/06/21 09:05:24;;;;;;;8.77;3.92;;;;;;;36.40;26.34;100373.75;5114917;27;20420;-68
2022/06/21 09:08:13;;;;;;;5.22;3.40;;;;;;;36.38;26.53;100378.81;5121116;27;20402;-68
2022/06/21 09:10:56;;;;;;;6.93;3.80;;;;;;;36.46;26.58;100377.84;5127842;27;20402;-68
2022/06/21 09:13:44;;;;;;;5.60;4.40;;;;;;;36.44;26.91;100368.31;5114675;27;20784;-69
2022/06/21 09:16:19;;;;;;;7.03;4.07;;;;;;;36.45;27.29;100356.94;5118688;27;20490;-69
2022/06/21 09:19:02;;;;;;;6.40;4.15;;;;;;;36.53;27.23;100357.91;5124955;27;20506;-69
2022/06/21 09:21:45;;;;;;;8.50;4.25;;;;;;;36.50;27.36;100355.84;5114077;27;20415;-68
2022/06/21 09:24:27;;;;;;;8.97;4.47;;;;;;;36.60;27.09;100349.00;5117207;28;20911;-69
2022/06/21 09:27:04;;;;;;;11.68;4.75;;;;;;;36.51;27.39;100369.28;5116941;28;20413;-69
2022/06/21 09:29:37;;;;;;;5.53;4.25;;;;;;;36.50;27.90;100369.66;5113707;28;20489;-68
2022/06/21 09:32:18;;;;;;;6.67;4.50;;;;;;;36.51;27.41;100358.25;5121546;28;20440;-69
2022/06/21 09:34:57;;;;;;;8.15;4.93;;;;;;;36.58;27.53;100362.38;5112098;28;20410;-68
2022/06/21 09:37:34;;;;;;;7.78;4.65;;;;;;;36.59;28.24;100363.97;5118852;28;20432;-69
2022/06/21 09:40:13;;;;;;;5.32;4.20;;;;;;;36.55;28.03;100369.38;5113423;28;20931;-72
2022/06/21 09:42:48;;;;;;;6.90;5.10;;;;;;;36.52;27.85;100362.63;5113398;28;20403;-69
2022/06/21 09:45:29;;;;;;;11.18;4.88;;;;;;;36.38;27.44;100376.06;5112221;28;20425;-68
2022/06/21 09:48:04;;;;;;;6.25;4.60;;;;;;;36.34;27.82;100373.19;5123869;27;20398;-70
2022/06/21 09:50:48;;;;;;;7.15;4.60;;;;;;;36.34;27.57;100375.97;5129788;27;20412;-69
2022/06/21 09:53:33;;;;;;;11.82;5.60;;;;;;;36.36;27.41;100370.88;5117396;27;20852;-69
2022/06/21 09:56:11;;;;;;;8.90;4.68;;;;;;;36.31;27.94;100368.38;5126131;27;20577;-69
2022/06/21 09:58:47;;;;;;;9.43;4.87;;;;;;;36.32;28.02;100372.75;5121421;27;20526;-70
2022/06/21 10:01:18;;;;;;;7.18;4.82;;;;;;;36.41;28.19;100374.53;5124741;27;20405;-69
2022/06/21 10:03:54;;;;;;;9.95;4.57;;;;;;;36.39;27.91;100385.13;5120636;27;20422;-66
2022/06/21 10:06:36;;;;;;;6.88;4.75;;;;;;;36.31;28.74;100389.66;5120925;27;20932;-63
2022/06/21 10:09:16;;;;;;;12.63;5.57;;;;;;;36.09;32.81;100383.53;5124179;27;20408;-68
2022/06/21 10:11:56;;;;;;;8.75;4.63;;;;;;;35.65;31.73;100375.13;5123636;27;20982;-71
2022/06/21 10:14:47;;;;;;;6.57;4.97;;;;;;;35.38;33.62;100382.19;5126737;27;20480;-70
2022/06/21 10:17:47;;;;;;;7.55;4.60;;;;;;;35.08;33.07;100390.69;5117567;27;20765;-72
2022/06/21 10:20:38;;;;;;;4.75;4.25;;;;;;;34.96;32.59;100385.97;5115415;27;20411;-63
2022/06/21 10:23:22;;;;;;;7.60;4.18;;;;;;;34.81;32.04;100379.19;5119466;27;20414;-64
2022/06/21 10:26:03;;;;;;;7.70;3.97;;;;;;;34.66;30.74;100379.81;5118031;27;20413;-62
2022/06/21 10:29:21;;;;;;;5.90;3.83;;;;;;;34.58;30.59;100386.22;5117323;27;20412;-62
2022/06/21 10:32:04;;;;;;;8.65;4.03;;;;;;;34.60;29.84;100393.00;5023045;28;20446;-62
2022/06/21 10:34:56;;;;;;;5.57;4.07;;;;;;;34.68;30.02;100388.53;5126311;27;20419;-62
2022/06/21 10:37:32;;;;;;;4.95;3.33;;;;;;;34.71;29.32;100393.38;5115526;27;20500;-62
2022/06/21 10:40:16;;;;;;;7.45;3.55;;;;;;;34.79;28.78;100387.00;5119803;27;20407;-62
2022/06/21 10:43:04;;;;;;;6.20;3.33;;;;;;;34.91;28.71;100383.44;5113687;27;20502;-62
2022/06/21 10:45:42;;;;;;;7.38;4.50;;;;;;;35.02;28.33;100376.34;5126726;27;20990;-63
2022/06/21 10:48:42;;;;;;;6.40;3.60;;;;;;;35.14;28.68;100378.28;5129101;27;20437;-62
2022/06/21 10:51:25;;;;;;;7.83;3.33;;;;;;;35.24;27.50;100396.34;5126393;27;20501;-63
2022/06/21 10:54:12;;;;;;;6.20;3.67;;;;;;;35.31;27.61;100381.97;5129218;27;20413;-62
2022/06/21 10:57:11;;;;;;;7.50;3.30;;;;;;;35.40;27.03;100383.47;5121529;27;20414;-62
2022/06/21 11:02:56;;;;;;;12.52;3.50;;;;;;;35.39;26.98;100395.63;5119480;27;20565;-64
2022/06/21 11:05:34;;;;;;;6.43;3.65;;;;;;;35.49;27.26;100379.75;5122119;27;20586;-64
2022/06/21 11:08:09;;;;;;;4.90;3.47;;;;;;;35.59;27.10;100391.13;5122532;27;20978;-64
2022/06/21 11:10:42;;;;;;;5.00;3.20;;;;;;;35.50;26.47;100389.66;5129705;27;20476;-64
2022/06/21 11:13:14;;;;;;;5.88;3.47;;;;;;;35.56;26.81;100383.53;5121133;27;20900;-64
2022/06/21 11:15:55;;;;;;;7.63;3.80;;;;;;;35.55;26.65;100392.97;5122630;27;20496;-64
2022/06/21 11:18:40;;;;;;;4.57;3.15;;;;;;;35.60;26.74;100395.50;5129373;27;20499;-64
2022/06/21 11:21:23;;;;;;;4.10;3.13;;;;;;;35.68;26.71;100384.66;5125667;27;20498;-63
2022/06/21 11:24:03;;;;;;;6.10;3.63;;;;;;;35.67;26.69;100374.78;5121038;27;20397;-63
2022/06/21 11:26:42;;;;;;;5.95;3.40;;;;;;;35.72;26.40;100375.38;5121160;27;20419;-64
2022/06/21 11:29:20;;;;;;;5.32;3.20;;;;;;;35.71;26.19;100384.81;5125552;27;20406;-64
2022/06/21 11:31:52;;;;;;;5.67;3.20;;;;;;;35.72;26.06;100374.56;5119631;27;20447;-64
2022/06/21 11:34:26;;;;;;;4.05;3.10;;;;;;;35.75;26.61;100382.94;5114950;27;21173;-64
2022/06/21 11:37:03;;;;;;;10.02;3.85;;;;;;;35.81;26.46;100391.00;5115110;27;20407;-64
2022/06/21 11:39:36;;;;;;;6.70;3.20;;;;;;;35.86;25.71;100397.06;5113109;27;20862;-64
2022/06/21 11:42:14;;;;;;;4.28;3.00;;;;;;;35.86;25.86;100402.56;5124475;27;20501;-64
2022/06/21 11:45:07;;;;;;;7.72;3.55;;;;;;;35.89;25.50;100399.13;5122197;27;20925;-65
2022/06/21 11:47:55;;;;;;;5.53;3.17;;;;;;;35.89;25.32;100401.88;5119915;27;20426;-64
2022/06/21 11:50:24;;;;;;;5.18;3.10;;;;;;;35.89;25.04;100392.78;5123108;27;20417;-64
2022/06/21 11:53:17;;;;;;;4.87;3.20;;;;;;;35.93;24.22;100407.50;5121255;27;20424;-65
2022/06/21 11:55:51;;;;;;;6.90;3.10;;;;;;;35.92;24.58;100398.41;5120685;27;20571;-64
2022/06/21 11:58:26;;;;;;;5.10;2.80;;;;;;;35.85;24.19;100408.44;5115500;27;20476;-63
2022/06/21 12:01:00;;;;;;;4.85;2.92;;;;;;;35.89;24.32;100390.84;5119249;27;20485;-63
2022/06/21 12:03:42;;;;;;;6.53;3.40;;;;;;;35.98;24.81;100396.22;5116421;27;20437;-63
2022/06/21 12:06:14;;;;;;;4.18;2.80;;;;;;;35.95;23.82;100388.63;5119101;27;20483;-63
2022/06/21 12:08:52;;;;;;;5.18;3.22;;;;;;;36.07;24.01;100382.25;5127506;27;20410;-63
2022/06/21 12:11:26;;;;;;;5.30;2.90;;;;;;;36.02;24.23;100386.09;5124721;27;20407;-65
2022/06/21 12:14:06;;;;;;;4.90;2.80;;;;;;;35.98;24.47;100387.94;5119128;27;20929;-64
2022/06/21 12:16:42;;;;;;;4.88;2.92;;;;;;;35.96;24.14;100395.75;5120160;27;20409;-64
2022/06/21 12:19:17;;;;;;;6.43;2.73;;;;;;;35.97;23.66;100402.88;5116554;27;20422;-63